Time;durP1;ratioP1;P1;durP2;ratioP2;P2;SDS_P1;SDS_P2;PMS_P1;PMS_P2;Temp;Humidity;BMP_temperature;BMP_pressure;BME280_temperature;BME280_humidity;BME280_pressure;Samples;Min_cycle;Max_cycle;Signal;HPM_P1;HPM_P2
2022/04/23 00:01:44;;;;;;;22.25;14.58;;;;;;;8.11;100.00;99780.30;1753781;81;21005;-70
2022/04/23 00:04:13;;;;;;;23.32;15.50;;;;;;;8.09;100.00;99772.93;1753816;81;21030;-70
2022/04/23 00:06:40;;;;;;;22.65;15.08;;;;;;;8.08;100.00;99763.36;1753648;81;21865;-70
2022/04/23 00:09:07;;;;;;;22.02;14.93;;;;;;;8.07;100.00;99761.62;1754179;81;21532;-72
2022/04/23 00:11:35;;;;;;;20.88;14.90;;;;;;;8.06;100.00;99752.06;1753866;81;20985;-71
2022/04/23 00:14:04;;;;;;;22.02;14.30;;;;;;;8.03;100.00;99756.10;1753997;81;22134;-72
2022/04/23 00:16:32;;;;;;;19.80;14.98;;;;;;;8.01;100.00;99764.47;1753961;81;21038;-71
2022/04/23 00:19:00;;;;;;;16.23;12.28;;;;;;;8.01;100.00;99761.84;1753770;81;21237;-70
2022/04/23 00:21:29;;;;;;;23.87;13.48;;;;;;;7.97;100.00;99760.22;1749607;81;21048;-70
2022/04/23 00:23:57;;;;;;;18.98;13.03;;;;;;;7.94;100.00;99761.64;1748278;82;21008;-70
2022/04/23 00:26:25;;;;;;;20.20;13.22;;;;;;;7.92;100.00;99767.39;1748302;82;21486;-71
2022/04/23 00:28:53;;;;;;;16.70;12.47;;;;;;;7.93;100.00;99766.47;1748614;82;21008;-71
2022/04/23 00:31:21;;;;;;;20.50;13.50;;;;;;;7.90;100.00;99758.71;1748452;82;21234;-71
2022/04/23 00:33:49;;;;;;;19.87;12.85;;;;;;;7.90;100.00;99753.47;1748498;82;21037;-71
2022/04/23 00:36:16;;;;;;;18.25;11.63;;;;;;;7.88;100.00;99755.28;1748321;82;21044;-71
2022/04/23 00:38:44;;;;;;;16.75;10.32;;;;;;;7.90;100.00;99745.60;1748278;82;21064;-71
2022/04/23 00:41:43;;;;;;;19.57;11.85;;;;;;;7.89;100.00;99746.48;1747982;82;21488;-70
2022/04/23 00:43:41;;;;;;;;;;;;;;;7.88;100.00;99750.03;1746710;82;21931;-71
2022/04/23 00:46:07;;;;;;;17.40;10.70;;;;;;;7.91;100.00;99752.55;1690349;82;20492;-70
2022/04/23 00:48:36;;;;;;;12.45;9.90;;;;;;;7.87;100.00;99758.36;1748073;82;21584;-71
2022/04/23 00:51:03;;;;;;;16.52;10.90;;;;;;;7.87;100.00;99754.42;1748129;82;21049;-70
2022/04/23 00:53:31;;;;;;;14.35;10.05;;;;;;;7.85;100.00;99752.77;1748479;82;21147;-70
2022/04/23 00:55:58;;;;;;;14.33;10.08;;;;;;;7.85;100.00;99743.59;1719085;82;21131;-71
2022/04/23 00:58:26;;;;;;;14.03;9.48;;;;;;;7.84;100.00;99733.52;1748224;82;21020;-72
2022/04/23 01:00:54;;;;;;;12.45;9.10;;;;;;;7.84;100.00;99726.13;1748211;82;21486;-72
2022/04/23 01:03:22;;;;;;;13.75;9.73;;;;;;;7.83;100.00;99723.11;1748122;82;21021;-71
2022/04/23 01:05:51;;;;;;;14.93;9.65;;;;;;;7.74;100.00;99726.42;1748040;82;21092;-71
2022/04/23 01:08:20;;;;;;;14.18;9.20;;;;;;;7.74;100.00;99717.70;1748090;82;21302;-70
2022/04/23 01:10:50;;;;;;;11.60;8.98;;;;;;;7.73;100.00;99706.37;1747967;82;21480;-71
2022/04/23 01:13:17;;;;;;;;;;;;;;;7.71;100.00;99699.00;1750756;82;21995;-70
2022/04/23 01:16:04;;;;;;;12.30;9.35;;;;;;;7.65;100.00;99707.05;1747891;82;20204;-72
2022/04/23 01:18:32;;;;;;;14.20;9.93;;;;;;;7.57;100.00;99710.39;1748286;82;21672;-71
2022/04/23 01:21:01;;;;;;;16.73;10.48;;;;;;;7.49;100.00;99711.06;1750360;81;21858;-71
2022/04/23 01:23:29;;;;;;;14.30;9.13;;;;;;;7.46;100.00;99717.27;1753684;81;20989;-70
2022/04/23 01:25:56;;;;;;;13.20;10.03;;;;;;;7.42;100.00;99711.70;1753424;81;21017;-70
2022/04/23 01:28:27;;;;;;;16.57;8.23;;;;;;;7.37;100.00;99722.78;1753721;81;21485;-72
2022/04/23 01:31:00;;;;;;;10.90;8.23;;;;;;;7.38;100.00;99718.39;1753778;81;21946;-72
2022/04/23 01:33:25;;;;;;;10.40;8.10;;;;;;;7.40;100.00;99711.34;1753264;81;21258;-70
2022/04/23 01:35:52;;;;;;;14.53;9.18;;;;;;;7.41;100.00;99714.36;1726504;81;21060;-71
2022/04/23 01:38:18;;;;;;;12.82;7.95;;;;;;;7.43;100.00;99716.48;1753670;81;21607;-71
2022/04/23 01:40:46;;;;;;;12.63;8.93;;;;;;;7.43;100.00;99713.86;1753682;81;21161;-70
2022/04/23 01:43:13;;;;;;;9.85;7.78;;;;;;;7.44;100.00;99703.80;1753773;81;21095;-71
2022/04/23 01:45:40;;;;;;;13.40;8.55;;;;;;;7.45;100.00;99704.20;1753665;81;21149;-70
2022/04/23 01:48:08;;;;;;;12.58;9.10;;;;;;;7.42;100.00;99705.16;1726540;81;21029;-70
2022/04/23 01:50:35;;;;;;;11.20;8.70;;;;;;;7.43;100.00;99715.17;1753755;81;21057;-70
2022/04/23 01:53:03;;;;;;;11.78;8.53;;;;;;;7.39;100.00;99707.03;1753792;81;21045;-70
2022/04/23 01:55:31;;;;;;;10.55;8.18;;;;;;;7.38;100.00;99707.91;1753626;81;21029;-71
2022/04/23 01:57:59;;;;;;;11.35;7.53;;;;;;;7.37;100.00;99710.99;1754040;81;21033;-71
2022/04/23 02:00:33;;;;;;;12.93;8.85;;;;;;;7.38;100.00;99718.39;1753813;81;21123;-70
2022/04/23 02:03:01;;;;;;;10.72;8.38;;;;;;;7.35;100.00;99712.34;1753845;81;21012;-72
2022/04/23 02:05:30;;;;;;;14.00;8.70;;;;;;;7.33;100.00;99708.91;1754002;81;21025;-71
2022/04/23 02:07:58;;;;;;;13.98;9.48;;;;;;;7.31;100.00;99701.55;1753639;81;21072;-70
2022/04/23 02:10:25;;;;;;;13.28;8.45;;;;;;;7.32;100.00;99693.26;1753939;81;21132;-70
2022/04/23 02:12:53;;;;;;;9.70;7.85;;;;;;;7.32;100.00;99682.32;1753891;81;22234;-70
2022/04/23 02:15:20;;;;;;;11.12;7.83;;;;;;;7.31;100.00;99684.52;1753877;81;21588;-71
2022/04/23 02:17:49;;;;;;;9.18;6.33;;;;;;;7.32;100.00;99688.87;1753584;81;21096;-70
2022/04/23 02:20:17;;;;;;;11.33;7.70;;;;;;;7.24;100.00;99690.84;1753892;81;21376;-71
2022/04/23 02:22:47;;;;;;;12.43;8.43;;;;;;;7.21;100.00;99696.19;1753962;81;21088;-70
2022/04/23 02:25:16;;;;;;;11.25;7.55;;;;;;;7.18;100.00;99703.27;1754115;81;21473;-71
2022/04/23 02:27:47;;;;;;;8.80;6.78;;;;;;;7.13;100.00;99700.36;1753789;81;21005;-70
2022/04/23 02:30:19;;;;;;;14.87;9.28;;;;;;;7.14;100.00;99702.52;1753789;81;21045;-69
2022/04/23 02:32:47;;;;;;;10.45;7.72;;;;;;;7.11;100.00;99707.86;1745652;81;21533;-69
2022/04/23 02:35:16;;;;;;;9.93;7.95;;;;;;;7.09;100.00;99707.05;1745579;82;21253;-71
2022/04/23 02:37:48;;;;;;;10.45;6.25;;;;;;;7.05;100.00;99700.17;1745132;82;21573;-71
2022/04/23 02:40:16;;;;;;;12.35;6.87;;;;;;;7.00;100.00;99702.92;1745346;82;21107;-72
2022/04/23 02:42:44;;;;;;;10.98;7.40;;;;;;;6.96;100.00;99709.61;1745245;82;21573;-71
2022/04/23 02:45:16;;;;;;;10.15;7.90;;;;;;;6.89;100.00;99707.16;1745407;82;21123;-70
2022/04/23 02:47:49;;;;;;;12.68;8.08;;;;;;;6.82;100.00;99716.09;1745289;82;21234;-69
2022/04/23 02:50:37;;;;;;;10.38;7.17;;;;;;;6.72;100.00;99719.42;1745580;82;21053;-71
2022/04/23 02:53:06;;;;;;;10.40;7.53;;;;;;;6.70;100.00;99720.37;1745332;82;21001;-71
2022/04/23 02:55:34;;;;;;;11.55;7.85;;;;;;;6.64;100.00;99723.14;1745807;82;21766;-70
2022/04/23 02:58:07;;;;;;;10.55;8.00;;;;;;;6.59;100.00;99732.88;1745268;82;21584;-72
2022/04/23 03:00:35;;;;;;;13.30;8.50;;;;;;;6.50;100.00;99723.05;1745514;82;21148;-71
2022/04/23 03:03:04;;;;;;;11.25;8.20;;;;;;;6.47;100.00;99729.69;1745241;82;21013;-71
2022/04/23 03:05:32;;;;;;;10.20;8.03;;;;;;;6.44;100.00;99723.24;1745352;82;21524;-70
2022/04/23 03:08:00;;;;;;;12.23;7.78;;;;;;;6.41;100.00;99714.61;1745051;82;21108;-71
2022/04/23 03:10:28;;;;;;;8.73;7.25;;;;;;;6.39;100.00;99715.94;1745257;82;22215;-70
2022/04/23 03:12:57;;;;;;;10.18;7.47;;;;;;;6.36;100.00;99710.80;1745327;82;21248;-71
2022/04/23 03:15:26;;;;;;;9.00;6.37;;;;;;;6.33;100.00;99720.05;1745314;82;21017;-71
2022/04/23 03:18:08;;;;;;;9.68;7.60;;;;;;;6.30;100.00;99716.19;1745702;82;21112;-71
2022/04/23 03:20:38;;;;;;;11.93;7.40;;;;;;;6.26;100.00;99725.03;1745409;81;21079;-71
2022/04/23 03:23:05;;;;;;;10.63;6.78;;;;;;;6.22;100.00;99714.23;1745298;82;21052;-71
2022/04/23 03:25:32;;;;;;;8.25;6.28;;;;;;;6.23;100.00;99715.94;1745489;82;21083;-69
2022/04/23 03:28:00;;;;;;;9.53;6.97;;;;;;;6.22;100.00;99707.70;1745295;82;21014;-69
2022/04/23 03:30:29;;;;;;;10.68;7.33;;;;;;;6.23;100.00;99714.62;1746754;80;20993;-70
2022/04/23 03:36:18;;;;;;;9.53;6.87;;;;;;;6.29;100.00;99704.88;1796094;79;28263;-71
2022/04/23 03:38:47;;;;;;;12.43;6.78;;;;;;;6.34;100.00;99712.59;1756736;81;20966;-70
2022/04/23 03:41:14;;;;;;;10.50;6.78;;;;;;;6.36;100.00;99710.80;1756759;81;21135;-70
2022/04/23 03:43:41;;;;;;;10.78;7.00;;;;;;;6.37;100.00;99702.05;1756447;81;21112;-71
2022/04/23 03:46:08;;;;;;;12.18;7.80;;;;;;;6.40;100.00;99691.52;1756657;81;21037;-70
2022/04/23 03:48:35;;;;;;;11.12;7.45;;;;;;;6.40;100.00;99691.52;1756466;81;21046;-72
2022/04/23 03:51:02;;;;;;;10.95;7.80;;;;;;;6.40;100.00;99681.06;1756462;81;21084;-71
2022/04/23 03:53:30;;;;;;;12.25;7.90;;;;;;;6.39;100.00;99688.48;1756546;81;21255;-70
2022/04/23 03:55:56;;;;;;;9.00;7.15;;;;;;;6.39;100.00;99678.02;1756387;81;20977;-69
2022/04/23 03:58:24;;;;;;;10.50;7.72;;;;;;;6.38;100.00;99681.55;1756463;81;21073;-70
2022/04/23 04:00:52;;;;;;;10.58;7.35;;;;;;;6.39;100.00;99686.32;1756642;81;21045;-69
2022/04/23 04:03:19;;;;;;;11.53;8.13;;;;;;;6.38;100.00;99685.92;1788728;80;21044;-70
2022/04/23 04:05:48;;;;;;;12.53;7.72;;;;;;;6.38;100.00;99687.23;1790590;80;21505;-69
2022/04/23 04:08:14;;;;;;;13.05;7.87;;;;;;;6.36;100.00;99689.03;1790810;80;21831;-70
2022/04/23 04:10:41;;;;;;;13.13;8.63;;;;;;;6.34;100.00;99682.52;1790678;80;22127;-70
2022/04/23 04:13:09;;;;;;;12.73;8.23;;;;;;;6.31;100.00;99677.38;1790558;80;20982;-71
2022/04/23 04:15:38;;;;;;;12.75;8.65;;;;;;;6.27;100.00;99684.89;1790702;80;21009;-71
2022/04/23 04:18:05;;;;;;;12.05;8.85;;;;;;;6.22;100.00;99676.32;1791022;80;22119;-70
2022/04/23 04:20:32;;;;;;;15.45;9.38;;;;;;;6.20;100.00;99680.73;1790671;80;21083;-71
2022/04/23 04:23:01;;;;;;;13.00;8.45;;;;;;;6.19;100.00;99681.61;1790682;80;21060;-71
2022/04/23 04:25:29;;;;;;;12.07;8.00;;;;;;;6.20;100.00;99685.95;1790850;80;21354;-71
2022/04/23 04:28:00;;;;;;;15.23;10.32;;;;;;;6.19;100.00;99694.68;1790613;80;21610;-70
2022/04/23 04:30:27;;;;;;;14.43;9.25;;;;;;;6.16;100.00;99686.93;1791218;80;21570;-71
2022/04/23 04:32:55;;;;;;;13.70;9.08;;;;;;;6.18;100.00;99702.98;1787820;80;22127;-69
2022/04/23 04:35:22;;;;;;;14.15;9.43;;;;;;;6.15;100.00;99689.15;1788151;80;21036;-69
2022/04/23 04:37:48;;;;;;;16.23;10.03;;;;;;;6.19;100.00;99684.22;1785472;80;21056;-69
2022/04/23 04:40:16;;;;;;;12.53;9.25;;;;;;;6.19;100.00;99680.30;1785437;80;21573;-70
2022/04/23 04:42:44;;;;;;;17.02;10.50;;;;;;;6.18;100.00;99672.06;1785358;80;22274;-69
2022/04/23 04:45:11;;;;;;;15.15;10.08;;;;;;;6.17;100.00;99678.20;1785462;80;21501;-70
2022/04/23 04:47:39;;;;;;;12.98;9.60;;;;;;;6.15;100.00;99674.77;1784770;80;21025;-70
2022/04/23 04:50:08;;;;;;;15.55;10.32;;;;;;;6.13;100.00;99683.95;1785008;80;21130;-70
2022/04/23 04:52:35;;;;;;;16.17;10.32;;;;;;;6.15;100.00;99686.53;1785271;80;21028;-70
2022/04/23 04:55:02;;;;;;;13.75;10.05;;;;;;;6.18;100.00;99683.83;1784979;80;21172;-71
2022/04/23 04:57:29;;;;;;;15.53;10.72;;;;;;;6.18;100.00;99675.98;1784814;80;21028;-70
2022/04/23 04:59:55;;;;;;;14.63;10.35;;;;;;;6.21;100.00;99673.28;1784993;80;21025;-71
2022/04/23 05:02:23;;;;;;;15.75;11.15;;;;;;;6.24;100.00;99671.91;1754588;80;21557;-70
2022/04/23 05:04:50;;;;;;;14.83;10.60;;;;;;;6.26;100.00;99667.50;1753965;81;21506;-71
2022/04/23 05:07:16;;;;;;;17.25;11.00;;;;;;;6.30;100.00;99675.65;1753785;81;21973;-71
2022/04/23 05:09:44;;;;;;;18.15;12.75;;;;;;;6.35;100.00;99674.22;1753651;81;21525;-70
2022/04/23 05:12:10;;;;;;;18.05;11.08;;;;;;;6.37;100.00;99659.34;1753643;81;21001;-70
2022/04/23 05:14:39;;;;;;;15.45;11.12;;;;;;;6.40;100.00;99657.52;1753581;81;21498;-71
2022/04/23 05:17:05;;;;;;;14.70;10.80;;;;;;;6.45;100.00;99663.47;1753682;81;21016;-72
2022/04/23 05:19:32;;;;;;;16.60;11.70;;;;;;;6.49;100.00;99662.50;1753745;81;21211;-70
2022/04/23 05:22:00;;;;;;;15.25;11.05;;;;;;;6.53;100.00;99665.02;1753676;81;21020;-69
2022/04/23 05:24:28;;;;;;;15.72;11.60;;;;;;;6.60;100.00;99656.09;1753730;81;21016;-70
2022/04/23 05:26:54;;;;;;;17.15;12.13;;;;;;;6.65;100.00;99675.16;1753555;81;21540;-70
2022/04/23 05:29:22;;;;;;;18.70;13.05;;;;;;;6.68;100.00;99651.52;1753706;81;21017;-71
2022/04/23 05:31:50;;;;;;;16.32;11.60;;;;;;;6.75;100.00;99662.20;1753706;81;21623;-69
2022/04/23 05:34:17;;;;;;;17.67;11.15;;;;;;;6.81;100.00;99652.00;1753638;80;20990;-71
2022/04/23 05:36:45;;;;;;;15.75;12.13;;;;;;;6.87;100.00;99650.06;1753648;81;21020;-69
2022/04/23 05:39:11;;;;;;;17.10;12.10;;;;;;;6.92;100.00;99644.26;1753592;81;21088;-70
2022/04/23 05:41:38;;;;;;;15.95;10.95;;;;;;;7.01;100.00;99650.95;1753713;81;21028;-70
2022/04/23 05:44:05;;;;;;;17.42;10.80;;;;;;;7.05;100.00;99645.19;1753520;81;21250;-72
2022/04/23 05:46:33;;;;;;;16.15;11.45;;;;;;;7.09;100.00;99645.51;1753385;81;21599;-72
2022/04/23 05:49:01;;;;;;;22.70;13.32;;;;;;;7.14;100.00;99647.53;1753601;81;20998;-70
2022/04/23 05:51:29;;;;;;;20.90;12.45;;;;;;;7.18;100.00;99639.98;1753452;81;21044;-70
2022/04/23 05:53:58;;;;;;;21.10;13.15;;;;;;;7.23;100.00;99652.48;1753486;81;21029;-70
2022/04/23 05:56:24;;;;;;;20.37;13.55;;;;;;;7.26;100.00;99647.59;1753613;81;21815;-70
2022/04/23 05:58:51;;;;;;;18.25;12.23;;;;;;;7.27;100.00;99650.18;1753554;81;20985;-70
2022/04/23 06:01:18;;;;;;;17.80;12.82;;;;;;;7.33;100.00;99640.80;1753867;80;21044;-70
2022/04/23 06:03:45;;;;;;;21.75;13.08;;;;;;;7.42;100.00;99642.27;1753881;81;21044;-71
2022/04/23 06:06:13;;;;;;;19.05;13.95;;;;;;;7.49;100.00;99636.39;1753903;81;21539;-70
2022/04/23 06:08:42;;;;;;;19.15;12.60;;;;;;;7.55;100.00;99640.13;1753971;81;21321;-71
2022/04/23 06:11:08;;;;;;;22.67;12.00;;;;;;;7.65;100.00;99641.99;1754048;81;21001;-71
2022/04/23 06:13:36;;;;;;;25.48;13.38;;;;;;;7.73;100.00;99631.66;1753658;81;21028;-71
2022/04/23 06:16:04;;;;;;;18.70;13.68;;;;;;;7.83;100.00;99628.73;1753804;81;21036;-73
2022/04/23 06:18:31;;;;;;;18.73;12.30;;;;;;;7.88;100.00;99626.81;1753844;81;21027;-71
2022/04/23 06:20:58;;;;;;;19.30;14.40;;;;;;;8.01;100.00;99637.75;1753738;81;23187;-70
2022/04/23 06:23:27;;;;;;;23.80;13.20;;;;;;;8.12;100.00;99627.72;1753636;81;21056;-71
2022/04/23 06:25:55;;;;;;;18.42;12.75;;;;;;;8.21;100.00;99637.88;1753778;81;21052;-71
2022/04/23 06:28:22;;;;;;;19.48;13.10;;;;;;;8.29;100.00;99627.14;1753803;81;21068;-71
2022/04/23 06:30:49;;;;;;;18.57;13.10;;;;;;;8.38;100.00;99629.44;1753888;81;21367;-71
2022/04/23 06:33:18;;;;;;;17.57;12.78;;;;;;;8.46;100.00;99628.72;1753671;81;21089;-72
2022/04/23 06:35:45;;;;;;;21.97;13.48;;;;;;;8.51;100.00;99627.23;1753440;81;21565;-70
2022/04/23 06:38:12;;;;;;;20.17;13.35;;;;;;;8.56;100.00;99618.30;1753664;81;21044;-72
2022/04/23 06:40:41;;;;;;;21.45;12.82;;;;;;;8.61;100.00;99621.60;1753619;81;20997;-69
2022/04/23 06:43:08;;;;;;;17.87;12.40;;;;;;;8.71;100.00;99631.77;1753705;81;21520;-72
2022/04/23 06:45:35;;;;;;;18.02;12.90;;;;;;;8.71;100.00;99616.86;1753757;81;21156;-71
2022/04/23 06:48:05;;;;;;;19.10;12.60;;;;;;;8.75;100.00;99617.61;1753494;81;21026;-71
2022/04/23 06:50:33;;;;;;;17.85;11.65;;;;;;;8.88;100.00;99611.42;1753782;81;21036;-71
2022/04/23 06:53:00;;;;;;;17.37;12.23;;;;;;;8.99;100.00;99619.28;1753588;81;21064;-72
2022/04/23 06:55:28;;;;;;;15.35;11.33;;;;;;;9.14;100.00;99606.02;1753478;81;21092;-71
2022/04/23 06:57:55;;;;;;;16.82;11.68;;;;;;;9.22;100.00;99617.53;1753386;81;21502;-71
2022/04/23 07:00:22;;;;;;;17.17;10.85;;;;;;;9.28;100.00;99612.52;1753526;81;21600;-71
2022/04/23 07:02:55;;;;;;;14.33;11.12;;;;;;;9.41;100.00;99605.39;1753616;81;21040;-71
2022/04/23 07:05:18;;;;;;;15.60;12.03;;;;;;;9.56;100.00;99605.67;1752172;81;21040;-71
2022/04/23 07:08:02;;;;;;;18.15;12.53;;;;;;;9.63;100.00;99608.44;1753711;81;21048;-71
2022/04/23 07:10:32;;;;;;;17.07;11.20;;;;;;;9.73;100.00;99590.06;1753616;81;20989;-70
2022/04/23 07:12:59;;;;;;;17.98;11.97;;;;;;;9.75;100.00;99603.97;1753374;81;21537;-72
2022/04/23 07:15:27;;;;;;;14.53;10.98;;;;;;;9.76;100.00;99594.33;1753802;81;21068;-70
2022/04/23 07:17:56;;;;;;;16.12;10.58;;;;;;;9.78;100.00;99605.17;1753589;81;21013;-71
2022/04/23 07:20:23;;;;;;;20.30;12.45;;;;;;;9.77;100.00;99587.67;1753608;81;21009;-69
2022/04/23 07:25:38;;;;;;;18.52;11.93;;;;;;;9.89;100.00;99582.34;1753663;81;21043;-70
2022/04/23 07:28:05;;;;;;;17.05;12.30;;;;;;;9.92;100.00;99585.33;1753656;81;21281;-70
2022/04/23 07:30:33;;;;;;;17.25;10.68;;;;;;;10.06;99.98;99584.27;1754196;81;21532;-71
2022/04/23 07:33:00;;;;;;;17.60;11.78;;;;;;;10.16;99.19;99582.93;1753698;81;21058;-70
2022/04/23 07:38:18;;;;;;;18.82;11.70;;;;;;;10.32;96.44;99571.77;1748067;82;21032;-71
2022/04/23 07:40:48;;;;;;;20.23;12.47;;;;;;;10.39;96.32;99577.14;1748200;82;21048;-71
2022/04/23 07:43:15;;;;;;;14.90;10.20;;;;;;;10.40;95.98;99567.88;1747769;82;21328;-71
2022/04/23 07:45:45;;;;;;;14.15;10.13;;;;;;;10.54;94.93;99567.24;1748173;82;21064;-70
2022/04/23 07:48:13;;;;;;;14.85;10.88;;;;;;;10.68;93.79;99573.19;1748234;82;21013;-71
2022/04/23 07:50:42;;;;;;;15.45;11.18;;;;;;;10.84;92.37;99561.01;1747924;82;21077;-70
2022/04/23 07:53:10;;;;;;;14.73;11.03;;;;;;;10.93;91.72;99559.72;1748042;82;20998;-71
2022/04/23 07:55:38;;;;;;;15.00;10.28;;;;;;;11.19;92.44;99560.25;1748123;82;21088;-70
2022/04/23 07:58:06;;;;;;;14.10;9.55;;;;;;;11.60;88.85;99553.40;1748053;82;21052;-71
2022/04/23 08:00:34;;;;;;;13.68;10.72;;;;;;;12.02;85.64;99550.84;1748229;82;21045;-68
2022/04/23 08:03:04;;;;;;;10.75;8.85;;;;;;;12.35;85.04;99549.50;1747924;82;20985;-72
2022/04/23 08:05:32;;;;;;;14.40;9.03;;;;;;;12.64;80.23;99557.19;1748248;82;21119;-71
2022/04/23 08:07:59;;;;;;;12.98;9.45;;;;;;;12.68;79.53;99560.05;1748048;82;21088;-71
2022/04/23 08:10:27;;;;;;;15.32;9.33;;;;;;;12.65;76.46;99550.95;1747871;82;21532;-72
2022/04/23 08:12:55;;;;;;;11.43;9.18;;;;;;;12.64;76.90;99551.90;1748028;82;21145;-71
2022/04/23 08:15:23;;;;;;;17.05;8.85;;;;;;;12.54;76.48;99549.39;1747844;82;21528;-70
2022/04/23 08:17:50;;;;;;;12.05;8.85;;;;;;;12.44;76.24;99561.38;1748123;82;21488;-69
2022/04/23 08:20:17;;;;;;;12.00;8.53;;;;;;;12.44;76.50;99542.88;1747909;82;21057;-71
2022/04/23 08:22:45;;;;;;;12.45;8.93;;;;;;;12.37;77.38;99556.41;1748040;82;21071;-72
2022/04/23 08:25:13;;;;;;;10.30;8.33;;;;;;;12.47;76.95;99535.66;1748121;82;21272;-70
2022/04/23 08:27:54;;;;;;;12.55;9.00;;;;;;;12.80;74.85;99536.91;1747864;82;21105;-71
2022/04/23 08:30:34;;;;;;;10.95;9.13;;;;;;;13.03;73.35;99528.16;1748513;82;21635;-71
2022/04/23 08:33:03;;;;;;;13.40;8.88;;;;;;;13.34;72.75;99526.42;1748227;82;21138;-71
2022/04/23 08:35:32;;;;;;;13.03;9.20;;;;;;;13.60;69.77;99523.11;1748419;82;21059;-72
2022/04/23 08:37:59;;;;;;;12.20;9.05;;;;;;;13.68;69.58;99521.33;1753232;81;21234;-72
2022/04/23 08:40:30;;;;;;;12.98;9.63;;;;;;;13.86;66.77;99508.80;1753698;81;21001;-70
2022/04/23 08:43:00;;;;;;;15.15;10.18;;;;;;;13.77;65.69;99512.00;1753589;81;22159;-70
2022/04/23 08:45:28;;;;;;;12.50;7.62;;;;;;;13.87;64.90;99500.38;1753738;81;21064;-70
2022/04/23 08:47:55;;;;;;;14.18;9.65;;;;;;;14.12;62.35;99507.19;1753431;81;21924;-70
2022/04/23 08:50:22;;;;;;;13.45;9.53;;;;;;;14.29;62.23;99498.22;1753777;81;21563;-70
2022/04/23 08:52:52;;;;;;;13.30;9.58;;;;;;;14.56;61.39;99490.82;1753736;80;22019;-71
2022/04/23 08:55:19;;;;;;;12.00;8.35;;;;;;;14.77;59.71;99496.09;1753545;81;21032;-71
2022/04/23 08:57:46;;;;;;;13.18;10.05;;;;;;;14.97;59.75;99487.30;1753690;81;21161;-70
2022/04/23 09:00:15;;;;;;;14.53;9.55;;;;;;;14.89;59.74;99488.66;1754097;81;21032;-71
2022/04/23 09:02:43;;;;;;;13.25;9.65;;;;;;;14.82;59.60;99482.06;1754100;81;21518;-70
2022/04/23 09:05:13;;;;;;;14.43;10.08;;;;;;;15.06;59.27;99486.70;1753850;81;21064;-71
2022/04/23 09:07:53;;;;;;;14.25;9.95;;;;;;;15.24;58.18;99480.19;1753635;81;21028;-72
2022/04/23 09:10:47;;;;;;;17.92;10.40;;;;;;;15.08;58.04;99472.88;1753817;81;21077;-71
2022/04/23 09:13:25;;;;;;;18.32;9.60;;;;;;;15.22;58.65;99483.89;1727740;81;21080;-71
2022/04/23 09:24:48;;;;;;;13.62;9.70;;;;;;;15.58;54.93;99467.30;1753964;81;21083;-71
2022/04/23 09:27:15;;;;;;;12.07;9.65;;;;;;;15.28;56.54;99449.85;1753741;81;21048;-69
2022/04/23 09:30:03;;;;;;;15.28;9.88;;;;;;;15.53;56.01;99449.52;1753917;81;21249;-70
2022/04/23 09:32:31;;;;;;;13.43;9.05;;;;;;;15.49;57.72;99453.34;1780727;80;20978;-70
2022/04/23 09:35:10;;;;;;;14.63;9.65;;;;;;;15.62;54.49;99452.87;1784799;80;21041;-70
2022/04/23 09:40:27;;;;;;;14.53;9.83;;;;;;;15.12;56.67;99461.12;1784878;80;21080;-70
2022/04/23 09:43:04;;;;;;;14.95;10.95;;;;;;;15.00;57.26;99444.67;1784770;80;26711;-69
2022/04/23 09:45:34;;;;;;;12.95;10.38;;;;;;;15.14;57.14;99441.98;1784746;80;21030;-70
2022/04/23 09:48:12;;;;;;;;;;;;;;;15.18;57.99;99438.14;1787284;80;21060;-70
2022/04/23 09:50:47;;;;;;;12.47;9.90;;;;;;;15.38;58.08;99439.94;1784819;80;20489;-70
2022/04/23 09:53:16;;;;;;;13.65;9.83;;;;;;;15.46;57.12;99453.52;1784839;80;21050;-71
2022/04/23 09:55:45;;;;;;;;;;;;;;;15.33;58.42;99438.09;1787318;80;20993;-70
2022/04/23 09:58:13;;;;;;;15.60;9.75;;;;;;;15.62;57.96;99434.30;1784741;80;20188;-71
2022/04/23 10:00:44;;;;;;;15.43;9.98;;;;;;;15.85;56.02;99454.42;1784726;80;20966;-70
2022/04/23 10:03:12;;;;;;;14.10;10.30;;;;;;;15.30;57.37;99422.75;1784585;80;21029;-71
2022/04/23 10:05:46;;;;;;;14.50;10.15;;;;;;;15.08;58.84;99422.48;1784816;80;21033;-70
2022/04/23 10:08:15;;;;;;;15.58;10.18;;;;;;;15.14;59.36;99418.56;1784835;80;21915;-71
2022/04/23 10:11:11;;;;;;;12.78;10.32;;;;;;;15.15;59.55;99415.81;1780440;80;21116;-72
2022/04/23 10:13:44;;;;;;;13.15;10.23;;;;;;;15.20;61.14;99400.44;1753512;81;21060;-70
2022/04/23 10:16:11;;;;;;;13.50;10.60;;;;;;;15.75;59.92;99399.80;1753585;81;21540;-71
2022/04/23 10:18:39;;;;;;;15.48;10.50;;;;;;;16.19;58.47;99393.63;1753584;81;21023;-69
2022/04/23 10:21:10;;;;;;;16.32;10.55;;;;;;;16.33;57.55;99389.48;1753840;81;21513;-72
2022/04/23 10:23:58;;;;;;;13.85;9.78;;;;;;;16.32;57.58;99383.33;1753565;81;21048;-71
2022/04/23 10:26:49;;;;;;;9.83;8.10;;;;;;;16.28;57.03;99375.69;1753634;81;21485;-71
2022/04/23 10:29:24;;;;;;;13.15;8.03;;;;;;;16.30;54.43;99381.74;1753852;81;21100;-71
2022/04/23 10:32:16;;;;;;;8.93;7.50;;;;;;;16.63;54.45;99365.60;1753689;81;21577;-71
2022/04/23 10:34:44;;;;;;;14.45;7.95;;;;;;;16.98;52.71;99359.02;1753890;81;21216;-72
2022/04/23 10:37:27;;;;;;;10.35;7.03;;;;;;;17.31;50.74;99363.55;1751432;81;21032;-71
2022/04/23 10:39:59;;;;;;;8.93;6.83;;;;;;;17.29;49.78;99354.84;1748051;82;21052;-71
2022/04/23 10:42:28;;;;;;;9.08;6.90;;;;;;;17.30;49.28;99352.56;1747915;82;21013;-71
2022/04/23 10:44:57;;;;;;;9.50;6.80;;;;;;;17.35;50.00;99345.55;1719512;82;21064;-71
2022/04/23 10:47:39;;;;;;;10.55;6.75;;;;;;;17.48;49.89;99350.27;1748053;82;21137;-71
2022/04/23 10:50:23;;;;;;;9.73;7.25;;;;;;;17.67;47.63;99349.69;1748333;82;21124;-71
2022/04/23 10:52:51;;;;;;;8.45;6.50;;;;;;;17.79;47.94;99334.06;1711658;83;21026;-70
2022/04/23 10:55:18;;;;;;;8.30;6.28;;;;;;;17.87;47.12;99356.60;1686960;85;21590;-71
2022/04/23 10:57:54;;;;;;;10.00;6.22;;;;;;;17.76;47.25;99326.33;1748138;81;21038;-71
2022/04/23 11:00:27;;;;;;;8.23;6.25;;;;;;;17.53;47.28;99330.81;1748264;82;21021;-71
2022/04/23 11:03:07;;;;;;;9.18;6.00;;;;;;;17.54;47.32;99331.65;1748314;82;21096;-70
2022/04/23 11:14:41;;;;;;;10.93;5.05;;;;;;;17.56;45.70;99308.42;1748061;82;21153;-71
2022/04/23 11:17:18;;;;;;;6.28;4.85;;;;;;;17.25;46.93;99302.82;1748024;82;21064;-71
2022/04/23 11:19:45;;;;;;;7.70;4.30;;;;;;;17.11;46.37;99307.04;1747904;82;21018;-72
2022/04/23 11:22:13;;;;;;;10.50;4.60;;;;;;;17.10;47.50;99308.02;1717372;82;21605;-70
2022/04/23 11:24:41;;;;;;;7.15;4.65;;;;;;;17.17;45.95;99315.89;1748019;82;21010;-70
2022/04/23 11:27:10;;;;;;;5.25;4.30;;;;;;;17.01;46.00;99290.95;1719190;82;21041;-70
2022/04/23 11:29:38;;;;;;;6.45;4.08;;;;;;;17.02;47.74;99294.45;1747908;82;21080;-71
2022/04/23 11:32:07;;;;;;;6.62;4.45;;;;;;;17.01;45.94;99299.42;1748110;82;21120;-70
2022/04/23 11:34:39;;;;;;;8.23;4.10;;;;;;;16.94;46.71;99305.69;1748467;82;21044;-71
2022/04/23 11:37:04;;;;;;;4.78;3.40;;;;;;;16.89;44.59;99299.39;1748656;81;21056;-70
2022/04/23 11:39:31;;;;;;;5.15;2.55;;;;;;;16.86;43.91;99291.63;1753677;81;21237;-70
2022/04/23 11:41:58;;;;;;;11.35;2.58;;;;;;;16.64;41.18;99287.08;1753717;81;21029;-70
2022/04/23 11:47:17;;;;;;;6.08;3.25;;;;;;;16.26;40.50;99271.34;1753779;81;21012;-71
2022/04/23 11:49:45;;;;;;;6.25;3.00;;;;;;;16.32;41.29;99279.70;1753992;81;20988;-71
2022/04/23 11:52:12;;;;;;;7.47;3.20;;;;;;;16.42;40.04;99267.90;1753617;81;21270;-71
2022/04/23 11:54:42;;;;;;;5.22;3.02;;;;;;;16.50;41.20;99288.61;1753462;81;21068;-72
2022/04/23 11:57:11;;;;;;;5.05;2.95;;;;;;;16.57;41.36;99272.07;1753861;81;21536;-72
2022/04/23 11:59:44;;;;;;;8.50;3.33;;;;;;;16.64;42.00;99279.59;1754176;81;21029;-71
2022/04/23 12:02:26;;;;;;;7.12;3.47;;;;;;;16.62;42.41;99266.89;1754022;81;21064;-70
2022/04/23 12:04:59;;;;;;;7.15;3.12;;;;;;;16.53;42.60;99274.59;1753877;81;21179;-71
2022/04/23 12:07:28;;;;;;;4.92;3.00;;;;;;;16.39;43.18;99250.87;1753608;81;21040;-71